Fernando Pessoa — CSKQ — position and weather

sailwx.info

Track history (hours):
 
Tides and Currents Weather Stations Pressure Air Temp Water Temp Dewpoint Dewpoint Depression Visibility Wind Speed Wind Dir Waves Ship Positions

Fernando Pessoa

Last reported at 2015-Mar-01 11:20 UTC. Time now 2015-Mar-02 03:42 UTC.
Position N 38°39' W 009°05'.

Length 49 m.

MMSI: 263701470.

Date/timePositionNaut miles runAvg speedWind from/ knotsBaromVisibWave heightAir tempDewpointWater temp
2015-Mar-01 11:20N 38°39' W 009°05'1 1.8
2015-Mar-01 10:33N 38°40' W 009°06'0 0.3
2015-Mar-01 09:34N 38°40' W 009°07'0 0.3
2015-Mar-01 08:33N 38°40' W 009°06'0 0.3
2015-Mar-01 07:33N 38°40' W 009°06'2 1.8
2015-Mar-01 06:33N 38°41' W 009°08'1 1.1
2015-Mar-01 05:33N 38°42' W 009°08'4 1.2
2015-Mar-01 02:26N 38°39' W 009°05'0 0.3
2015-Mar-01 01:33N 38°39' W 009°05'0 0.0
2015-Mar-01 00:33N 38°39' W 009°05'0 0.3
2015-Feb-28 23:33N 38°39' W 009°05'1 1.0
2015-Feb-28 22:34N 38°40' W 009°06'0 0.1
2015-Feb-28 21:33N 38°40' W 009°06'0 0.1
2015-Feb-28 20:33N 38°40' W 009°06'1 0.9
2015-Feb-28 19:33N 38°40' W 009°08'1 0.5
2015-Feb-28 18:33N 38°41' W 009°08'0 0.2
2015-Feb-28 17:33N 38°41' W 009°08'0 0.1
2015-Feb-28 16:33N 38°41' W 009°08'0 0.1
2015-Feb-28 15:33N 38°41' W 009°08'3 2.8
2015-Feb-28 14:33N 38°39' W 009°05'0 0.0
2015-Feb-28 13:33N 38°39' W 009°05'2 1.7
2015-Feb-28 12:34N 38°40' W 009°07'0 0.1
2015-Feb-28 11:33N 38°40' W 009°07'0 0.1
2015-Feb-28 10:33N 38°40' W 009°06'0 0.3
2015-Feb-28 09:33N 38°40' W 009°07'0 0.3
2015-Feb-28 08:33N 38°40' W 009°06'0 0.1
2015-Feb-28 07:33N 38°40' W 009°07'1 1.3
2015-Feb-28 06:33N 38°41' W 009°08'1 1.1
2015-Feb-28 05:33N 38°42' W 009°08'4 3.6
2015-Feb-28 04:33N 38°39' W 009°05'0 0.0
2015-Feb-28 03:33N 38°39' W 009°05'0 0.0
2015-Feb-28 02:33N 38°39' W 009°05'0 0.1
2015-Feb-28 01:33N 38°39' W 009°05'0 0.4
2015-Feb-28 00:34N 38°39' W 009°05'0 0.1
2015-Feb-27 23:34N 38°39' W 009°05'1 1.2
2015-Feb-27 22:34N 38°40' W 009°07'0 0.1
2015-Feb-27 21:34N 38°40' W 009°07'2 1.6
2015-Feb-27 20:33N 38°39' W 009°05'0 0.0
2015-Feb-27 19:34N 38°39' W 009°05'1 1.4
2015-Feb-27 18:32N 38°40' W 009°06'3 2.7
2015-Feb-27 17:33N 38°42' W 009°08'4 3.9
2015-Feb-27 16:33N 38°39' W 009°05'0 0.0
2015-Feb-27 13:28N 38°39' W 009°05'1 1.6
2015-Feb-27 12:34N 38°40' W 009°07'0 0.2
2015-Feb-27 11:34N 38°40' W 009°06'1 1.4
2015-Feb-27 10:33N 38°39' W 009°05'0 0.0
2015-Feb-27 09:33N 38°39' W 009°05'0 0.0
2015-Feb-27 08:33N 38°39' W 009°05'1 0.6
2015-Feb-27 07:33N 38°39' W 009°05'1 0.5
2015-Feb-27 06:33N 38°39' W 009°05'4 0.4
2015-Feb-26 20:33N 38°42' W 009°08'0 0.5
2015-Feb-26 19:33N 38°42' W 009°08'1 1.2
2015-Feb-26 18:34N 38°41' W 009°08'3 2.7
2015-Feb-26 17:33N 38°39' W 009°05'4 3.7
2015-Feb-26 16:33N 38°42' W 009°08'2 1.5
2015-Feb-26 15:33N 38°41' W 009°08'0 0.1
2015-Feb-26 14:33N 38°41' W 009°08'0 0.2
2015-Feb-26 13:33N 38°41' W 009°08'0 0.2
2015-Feb-26 12:33N 38°41' W 009°08'0 0.1
2015-Feb-26 11:33N 38°41' W 009°08'3 2.9
2015-Feb-26 10:33N 38°39' W 009°05'1 1.4
2015-Feb-26 09:34N 38°40' W 009°06'3 2.9
2015-Feb-26 08:33N 38°42' W 009°08'1 1.2
2015-Feb-26 07:33N 38°41' W 009°08'3 2.9
2015-Feb-26 06:34N 38°39' W 009°05'0 0.0
2015-Feb-25 21:33N 38°39' W 009°05'0 0.0
2015-Feb-25 20:33N 38°39' W 009°05'3 3.2
2015-Feb-25 19:33N 38°41' W 009°08'2 1.6
2015-Feb-25 18:34N 38°40' W 009°07'2 2.0
2015-Feb-25 17:34N 38°39' W 009°05'0 0.0
2015-Feb-25 16:33N 38°39' W 009°05'0 0.1
2015-Feb-25 15:33N 38°39' W 009°05'0 0.0
2015-Feb-25 13:31N 38°39' W 009°05'1 1.4
2015-Feb-25 12:34N 38°40' W 009°06'0 0.1
2015-Feb-25 11:33N 38°40' W 009°06'1 1.3
2015-Feb-25 10:33N 38°39' W 009°05'0 0.0
2015-Feb-25 09:33N 38°39' W 009°05'0 0.0
2015-Feb-25 08:33N 38°39' W 009°05'1 0.6
2015-Feb-25 07:33N 38°39' W 009°05'1 0.5
2015-Feb-25 06:33N 38°39' W 009°05'0 0.0
2015-Feb-24 21:11N 38°39' W 009°05'4 6.3
2015-Feb-24 20:33N 38°42' W 009°08'0 0.2
2015-Feb-24 19:33N 38°42' W 009°08'2 1.7
2015-Feb-24 18:33N 38°41' W 009°07'3 2.5
2015-Feb-24 17:33N 38°39' W 009°05'4 3.8
2015-Feb-24 16:33N 38°42' W 009°08'1 1.2
2015-Feb-24 15:33N 38°41' W 009°08'0 0.2
2015-Feb-24 14:33N 38°41' W 009°08'0 0.2
2015-Feb-24 13:33N 38°41' W 009°08'0 0.2
2015-Feb-24 12:33N 38°41' W 009°08'0 0.2
2015-Feb-24 11:33N 38°41' W 009°08'3 2.9
2015-Feb-24 10:33N 38°39' W 009°05'2 2.0
2015-Feb-24 09:33N 38°40' W 009°07'3 2.5
2015-Feb-24 08:33N 38°42' W 009°08'1 1.3
2015-Feb-24 07:33N 38°41' W 009°08'3 2.9
2015-Feb-24 06:33N 38°39' W 009°05'0 0.0
2015-Feb-23 10:23N 38°39' W 009°05'4 4.8
2015-Feb-23 09:33N 38°42' W 009°08'0 0.0
2015-Feb-23 08:33N 38°42' W 009°08'3 2.6
2015-Feb-23 07:33N 38°40' W 009°07'  
2015-Feb-20 22:33N 38°39' W 009°05'0 0.0
2015-Feb-20 21:33N 38°39' W 009°05'0 0.0
2015-Feb-20 20:33N 38°39' W 009°05'4 3.7
2015-Feb-20 19:33N 38°42' W 009°08'0 0.4
2015-Feb-20 18:33N 38°42' W 009°08'3 2.7
2015-Feb-20 17:33N 38°40' W 009°07'1 1.4
2015-Feb-20 16:33N 38°39' W 009°05'1 1.0
2015-Feb-20 15:33N 38°40' W 009°06'1 1.3
2015-Feb-20 14:33N 38°39' W 009°05'0 0.0
2015-Feb-20 13:33N 38°39' W 009°05'0 0.0
2015-Feb-20 12:33N 38°39' W 009°05'0 0.0
2015-Feb-20 11:33N 38°39' W 009°05'0 0.1
2015-Feb-20 10:33N 38°39' W 009°05'1 1.4
2015-Feb-20 09:34N 38°40' W 009°06'0 0.4
2015-Feb-20 08:33N 38°40' W 009°07'2 1.9
2015-Feb-20 07:34N 38°39' W 009°05'0 0.0
2015-Feb-20 06:33N 38°39' W 009°05'0 0.0
2015-Feb-20 05:33N 38°39' W 009°05'0 0.0
2015-Feb-20 04:34N 38°39' W 009°05'0 0.0
2015-Feb-20 03:33N 38°39' W 009°05'0 0.0
2015-Feb-20 02:33N 38°39' W 009°05'0 0.0
2015-Feb-20 01:33N 38°39' W 009°05'0 0.0
2015-Feb-20 00:33N 38°39' W 009°05'4 3.9
2015-Feb-19 23:33N 38°42' W 009°08'1 1.3
2015-Feb-19 22:33N 38°41' W 009°08'0 0.2
2015-Feb-19 21:33N 38°41' W 009°08'3 2.8
2015-Feb-19 20:33N 38°39' W 009°05'0 0.5
2015-Feb-19 19:33N 38°39' W 009°05'0 0.5
2015-Feb-19 18:33N 38°39' W 009°05'1 1.3
2015-Feb-19 17:33N 38°40' W 009°06'1 1.2
2015-Feb-19 16:33N 38°39' W 009°05'  
Track history (hours):
 
Tides and Currents Weather Stations Pressure Air Temp Water Temp Dewpoint Dewpoint Depression Visibility Wind Speed Wind Dir Waves Ship Positions

Fernando Pessoa

Last reported at 2015-Mar-01 11:20 UTC. Time now 2015-Mar-02 03:42 UTC.
Position N 38°39' W 009°05'.

Length 49 m.

MMSI: 263701470.

Date/timePositionNaut miles runAvg speedWind from/ knotsBaromVisibWave heightAir tempDewpointWater temp
2015-Mar-01 11:20N 38°39' W 009°05'1 1.8
2015-Mar-01 10:33N 38°40' W 009°06'0 0.3
2015-Mar-01 09:34N 38°40' W 009°07'0 0.3
2015-Mar-01 08:33N 38°40' W 009°06'0 0.3
2015-Mar-01 07:33N 38°40' W 009°06'2 1.8
2015-Mar-01 06:33N 38°41' W 009°08'1 1.1
2015-Mar-01 05:33N 38°42' W 009°08'4 1.2
2015-Mar-01 02:26N 38°39' W 009°05'0 0.3
2015-Mar-01 01:33N 38°39' W 009°05'0 0.0
2015-Mar-01 00:33N 38°39' W 009°05'0 0.3
2015-Feb-28 23:33N 38°39' W 009°05'1 1.0
2015-Feb-28 22:34N 38°40' W 009°06'0 0.1
2015-Feb-28 21:33N 38°40' W 009°06'0 0.1
2015-Feb-28 20:33N 38°40' W 009°06'1 0.9
2015-Feb-28 19:33N 38°40' W 009°08'1 0.5
2015-Feb-28 18:33N 38°41' W 009°08'0 0.2
2015-Feb-28 17:33N 38°41' W 009°08'0 0.1
2015-Feb-28 16:33N 38°41' W 009°08'0 0.1
2015-Feb-28 15:33N 38°41' W 009°08'3 2.8
2015-Feb-28 14:33N 38°39' W 009°05'0 0.0
2015-Feb-28 13:33N 38°39' W 009°05'2 1.7
2015-Feb-28 12:34N 38°40' W 009°07'0 0.1
2015-Feb-28 11:33N 38°40' W 009°07'0 0.1
2015-Feb-28 10:33N 38°40' W 009°06'0 0.3
2015-Feb-28 09:33N 38°40' W 009°07'0 0.3
2015-Feb-28 08:33N 38°40' W 009°06'0 0.1
2015-Feb-28 07:33N 38°40' W 009°07'1 1.3
2015-Feb-28 06:33N 38°41' W 009°08'1 1.1
2015-Feb-28 05:33N 38°42' W 009°08'4 3.6
2015-Feb-28 04:33N 38°39' W 009°05'0 0.0
2015-Feb-28 03:33N 38°39' W 009°05'0 0.0
2015-Feb-28 02:33N 38°39' W 009°05'0 0.1
2015-Feb-28 01:33N 38°39' W 009°05'0 0.4
2015-Feb-28 00:34N 38°39' W 009°05'0 0.1
2015-Feb-27 23:34N 38°39' W 009°05'1 1.2
2015-Feb-27 22:34N 38°40' W 009°07'0 0.1
2015-Feb-27 21:34N 38°40' W 009°07'2 1.6
2015-Feb-27 20:33N 38°39' W 009°05'0 0.0
2015-Feb-27 19:34N 38°39' W 009°05'1 1.4
2015-Feb-27 18:32N 38°40' W 009°06'3 2.7
2015-Feb-27 17:33N 38°42' W 009°08'4 3.9
2015-Feb-27 16:33N 38°39' W 009°05'0 0.0
2015-Feb-27 13:28N 38°39' W 009°05'1 1.6
2015-Feb-27 12:34N 38°40' W 009°07'0 0.2
2015-Feb-27 11:34N 38°40' W 009°06'1 1.4
2015-Feb-27 10:33N 38°39' W 009°05'0 0.0
2015-Feb-27 09:33N 38°39' W 009°05'0 0.0
2015-Feb-27 08:33N 38°39' W 009°05'1 0.6
2015-Feb-27 07:33N 38°39' W 009°05'1 0.5
2015-Feb-27 06:33N 38°39' W 009°05'4 0.4
2015-Feb-26 20:33N 38°42' W 009°08'0 0.5
2015-Feb-26 19:33N 38°42' W 009°08'1 1.2
2015-Feb-26 18:34N 38°41' W 009°08'3 2.7
2015-Feb-26 17:33N 38°39' W 009°05'4 3.7
2015-Feb-26 16:33N 38°42' W 009°08'2 1.5
2015-Feb-26 15:33N 38°41' W 009°08'0 0.1
2015-Feb-26 14:33N 38°41' W 009°08'0 0.2
2015-Feb-26 13:33N 38°41' W 009°08'0 0.2
2015-Feb-26 12:33N 38°41' W 009°08'0 0.1
2015-Feb-26 11:33N 38°41' W 009°08'3 2.9
2015-Feb-26 10:33N 38°39' W 009°05'1 1.4
2015-Feb-26 09:34N 38°40' W 009°06'3 2.9
2015-Feb-26 08:33N 38°42' W 009°08'1 1.2
2015-Feb-26 07:33N 38°41' W 009°08'3 2.9
2015-Feb-26 06:34N 38°39' W 009°05'0 0.0
2015-Feb-25 21:33N 38°39' W 009°05'0 0.0
2015-Feb-25 20:33N 38°39' W 009°05'3 3.2
2015-Feb-25 19:33N 38°41' W 009°08'2 1.6
2015-Feb-25 18:34N 38°40' W 009°07'2 2.0
2015-Feb-25 17:34N 38°39' W 009°05'0 0.0
2015-Feb-25 16:33N 38°39' W 009°05'0 0.1
2015-Feb-25 15:33N 38°39' W 009°05'0 0.0
2015-Feb-25 13:31N 38°39' W 009°05'1 1.4
2015-Feb-25 12:34N 38°40' W 009°06'0 0.1
2015-Feb-25 11:33N 38°40' W 009°06'1 1.3
2015-Feb-25 10:33N 38°39' W 009°05'0 0.0
2015-Feb-25 09:33N 38°39' W 009°05'0 0.0
2015-Feb-25 08:33N 38°39' W 009°05'1 0.6
2015-Feb-25 07:33N 38°39' W 009°05'1 0.5
2015-Feb-25 06:33N 38°39' W 009°05'0 0.0
2015-Feb-24 21:11N 38°39' W 009°05'4 6.3
2015-Feb-24 20:33N 38°42' W 009°08'0 0.2
2015-Feb-24 19:33N 38°42' W 009°08'2 1.7
2015-Feb-24 18:33N 38°41' W 009°07'3 2.5
2015-Feb-24 17:33N 38°39' W 009°05'4 3.8
2015-Feb-24 16:33N 38°42' W 009°08'1 1.2
2015-Feb-24 15:33N 38°41' W 009°08'0 0.2
2015-Feb-24 14:33N 38°41' W 009°08'0 0.2
2015-Feb-24 13:33N 38°41' W 009°08'0 0.2
2015-Feb-24 12:33N 38°41' W 009°08'0 0.2
2015-Feb-24 11:33N 38°41' W 009°08'3 2.9
2015-Feb-24 10:33N 38°39' W 009°05'2 2.0
2015-Feb-24 09:33N 38°40' W 009°07'3 2.5
2015-Feb-24 08:33N 38°42' W 009°08'1 1.3
2015-Feb-24 07:33N 38°41' W 009°08'3 2.9
2015-Feb-24 06:33N 38°39' W 009°05'0 0.0
2015-Feb-23 10:23N 38°39' W 009°05'4 4.8
2015-Feb-23 09:33N 38°42' W 009°08'0 0.0
2015-Feb-23 08:33N 38°42' W 009°08'3 2.6
2015-Feb-23 07:33N 38°40' W 009°07'  
2015-Feb-20 22:33N 38°39' W 009°05'0 0.0
2015-Feb-20 21:33N 38°39' W 009°05'0 0.0
2015-Feb-20 20:33N 38°39' W 009°05'4 3.7
2015-Feb-20 19:33N 38°42' W 009°08'0 0.4
2015-Feb-20 18:33N 38°42' W 009°08'3 2.7
2015-Feb-20 17:33N 38°40' W 009°07'1 1.4
2015-Feb-20 16:33N 38°39' W 009°05'1 1.0
2015-Feb-20 15:33N 38°40' W 009°06'1 1.3
2015-Feb-20 14:33N 38°39' W 009°05'0 0.0
2015-Feb-20 13:33N 38°39' W 009°05'0 0.0
2015-Feb-20 12:33N 38°39' W 009°05'0 0.0
2015-Feb-20 11:33N 38°39' W 009°05'0 0.1
2015-Feb-20 10:33N 38°39' W 009°05'1 1.4
2015-Feb-20 09:34N 38°40' W 009°06'0 0.4
2015-Feb-20 08:33N 38°40' W 009°07'2 1.9
2015-Feb-20 07:34N 38°39' W 009°05'0 0.0
2015-Feb-20 06:33N 38°39' W 009°05'0 0.0
2015-Feb-20 05:33N 38°39' W 009°05'0 0.0
2015-Feb-20 04:34N 38°39' W 009°05'0 0.0
2015-Feb-20 03:33N 38°39' W 009°05'0 0.0
2015-Feb-20 02:33N 38°39' W 009°05'0 0.0
2015-Feb-20 01:33N 38°39' W 009°05'0 0.0
2015-Feb-20 00:33N 38°39' W 009°05'4 3.9
2015-Feb-19 23:33N 38°42' W 009°08'1 1.3
2015-Feb-19 22:33N 38°41' W 009°08'0 0.2
2015-Feb-19 21:33N 38°41' W 009°08'3 2.8
2015-Feb-19 20:33N 38°39' W 009°05'0 0.5
2015-Feb-19 19:33N 38°39' W 009°05'0 0.5
2015-Feb-19 18:33N 38°39' W 009°05'1 1.3
2015-Feb-19 17:33N 38°40' W 009°06'1 1.2
2015-Feb-19 16:33N 38°39' W 009°05'  

Dump ship's entire track history